Albany, Georgia
Current Conditions -  °F | °C
As of 7:53 AM on Saturday 20 Dec 2014 (Local Time) from KABY Reporting Station
Overcast Overcast  
Wind Chill: 47°   Ceiling: 6000
Heat Index: 49°   Visibility: 7mi
Dew Point: 47°   Wind: 5mph
Humidity: 93%   Direction: 10°N
Pressure: 30.19"   Gusts: NA
Location:  31.58°N, 84.15°W
Report Text: KABY 201253Z 01004KT 7SM FEW006 OVC060 09/08 A3019 RMK AO2 SLP223 T00940083
Loading
Personal Weather Stations






























Interactive Weather Map New forecast layout! Learn more

10-Day Weather Forecast

Advertisements
Track Severe Weather on mobile